Terminal Aerodrome Forecast
Issued by NWS

Home | Current Version | Previous Version | Text Only | Print | Product List | Glossary On
Versions: 1 2 3 4 5 6 7 8 9 10 11 12 13 14 15 16 17 18 19 20 21 22 23 24 25 26 27 28 29 30
000
FTUS41 KOKX 242327
TAFTEB
TAF
KTEB 242327Z 2500/2524 VRB03KT P6SM BKN120
     FM250800 VRB03KT P6SM FEW250
     FM251300 28006KT P6SM FEW250
     FM251600 27010G15KT P6SM FEW250
     FM252200 26009KT P6SM FEW250=

USA.gov is the U.S. government's official web portal to all federal, state and local government web resources and services.